sensor_id;sensor_type;location;lat;lon;timestamp;P1;durP1;ratioP1;P2;durP2;ratioP2
72388;SDS011;60566;48.062;9.930;2022-12-16T00:00:32;21.20;;;9.55;;
72388;SDS011;60566;48.062;9.930;2022-12-16T00:02:58;20.80;;;9.15;;
72388;SDS011;60566;48.062;9.930;2022-12-16T00:05:23;16.63;;;8.65;;
72388;SDS011;60566;48.062;9.930;2022-12-16T00:07:48;19.73;;;9.45;;
72388;SDS011;60566;48.062;9.930;2022-12-16T00:10:14;22.25;;;8.77;;
72388;SDS011;60566;48.062;9.930;2022-12-16T00:12:41;22.77;;;9.75;;
72388;SDS011;60566;48.062;9.930;2022-12-16T00:15:06;20.38;;;8.32;;
72388;SDS011;60566;48.062;9.930;2022-12-16T00:17:32;19.35;;;9.40;;
72388;SDS011;60566;48.062;9.930;2022-12-16T00:19:57;25.25;;;9.73;;
72388;SDS011;60566;48.062;9.930;2022-12-16T00:22:23;29.13;;;12.13;;
72388;SDS011;60566;48.062;9.930;2022-12-16T00:24:48;21.13;;;9.25;;
72388;SDS011;60566;48.062;9.930;2022-12-16T00:27:14;21.83;;;10.57;;
72388;SDS011;60566;48.062;9.930;2022-12-16T00:29:40;22.55;;;11.48;;
72388;SDS011;60566;48.062;9.930;2022-12-16T00:32:06;21.27;;;9.57;;
72388;SDS011;60566;48.062;9.930;2022-12-16T00:34:31;24.52;;;10.77;;
72388;SDS011;60566;48.062;9.930;2022-12-16T00:36:57;21.70;;;10.20;;
72388;SDS011;60566;48.062;9.930;2022-12-16T00:39:22;25.30;;;10.52;;
72388;SDS011;60566;48.062;9.930;2022-12-16T00:41:47;22.00;;;9.90;;
72388;SDS011;60566;48.062;9.930;2022-12-16T00:44:13;24.67;;;11.57;;
72388;SDS011;60566;48.062;9.930;2022-12-16T00:46:39;21.83;;;10.85;;
72388;SDS011;60566;48.062;9.930;2022-12-16T00:49:05;20.73;;;10.60;;
72388;SDS011;60566;48.062;9.930;2022-12-16T00:51:30;25.23;;;11.00;;
72388;SDS011;60566;48.062;9.930;2022-12-16T00:53:55;30.17;;;13.02;;
72388;SDS011;60566;48.062;9.930;2022-12-16T00:56:21;27.27;;;11.68;;
72388;SDS011;60566;48.062;9.930;2022-12-16T00:58:46;22.98;;;10.18;;
72388;SDS011;60566;48.062;9.930;2022-12-16T01:01:12;23.70;;;11.00;;
72388;SDS011;60566;48.062;9.930;2022-12-16T01:03:39;23.83;;;10.82;;
72388;SDS011;60566;48.062;9.930;2022-12-16T01:06:08;28.95;;;11.43;;
72388;SDS011;60566;48.062;9.930;2022-12-16T01:08:35;25.55;;;12.15;;
72388;SDS011;60566;48.062;9.930;2022-12-16T01:11:00;25.65;;;10.85;;
72388;SDS011;60566;48.062;9.930;2022-12-16T01:13:26;25.85;;;11.95;;
72388;SDS011;60566;48.062;9.930;2022-12-16T01:15:51;25.77;;;10.75;;
72388;SDS011;60566;48.062;9.930;2022-12-16T01:18:17;24.33;;;11.23;;
72388;SDS011;60566;48.062;9.930;2022-12-16T01:20:44;24.73;;;10.48;;
72388;SDS011;60566;48.062;9.930;2022-12-16T01:23:09;25.92;;;10.88;;
72388;SDS011;60566;48.062;9.930;2022-12-16T01:25:34;22.95;;;10.82;;
72388;SDS011;60566;48.062;9.930;2022-12-16T01:28:00;30.88;;;11.82;;
72388;SDS011;60566;48.062;9.930;2022-12-16T01:30:25;22.42;;;9.73;;
72388;SDS011;60566;48.062;9.930;2022-12-16T01:32:51;28.05;;;12.30;;
72388;SDS011;60566;48.062;9.930;2022-12-16T01:35:16;20.60;;;10.10;;
72388;SDS011;60566;48.062;9.930;2022-12-16T01:37:43;31.75;;;12.57;;
72388;SDS011;60566;48.062;9.930;2022-12-16T01:40:09;27.08;;;11.80;;
72388;SDS011;60566;48.062;9.930;2022-12-16T01:42:42;22.55;;;11.10;;
72388;SDS011;60566;48.062;9.930;2022-12-16T01:45:21;25.55;;;10.82;;
72388;SDS011;60566;48.062;9.930;2022-12-16T01:47:54;31.63;;;13.60;;
72388;SDS011;60566;48.062;9.930;2022-12-16T01:50:22;28.23;;;12.43;;
72388;SDS011;60566;48.062;9.930;2022-12-16T01:52:50;22.73;;;10.68;;
72388;SDS011;60566;48.062;9.930;2022-12-16T01:55:19;23.70;;;10.20;;
72388;SDS011;60566;48.062;9.930;2022-12-16T01:57:47;28.67;;;12.45;;
72388;SDS011;60566;48.062;9.930;2022-12-16T02:00:15;21.17;;;11.23;;
72388;SDS011;60566;48.062;9.930;2022-12-16T02:02:41;27.27;;;11.43;;
72388;SDS011;60566;48.062;9.930;2022-12-16T02:05:07;28.55;;;12.30;;
72388;SDS011;60566;48.062;9.930;2022-12-16T02:07:32;27.85;;;12.35;;
72388;SDS011;60566;48.062;9.930;2022-12-16T02:09:59;29.27;;;12.43;;
72388;SDS011;60566;48.062;9.930;2022-12-16T02:12:26;24.80;;;11.30;;
72388;SDS011;60566;48.062;9.930;2022-12-16T02:14:57;27.02;;;12.18;;
72388;SDS011;60566;48.062;9.930;2022-12-16T02:17:30;26.67;;;11.80;;
72388;SDS011;60566;48.062;9.930;2022-12-16T02:22:49;25.27;;;11.40;;
72388;SDS011;60566;48.062;9.930;2022-12-16T02:25:26;30.00;;;12.55;;
72388;SDS011;60566;48.062;9.930;2022-12-16T02:28:02;24.20;;;11.75;;
72388;SDS011;60566;48.062;9.930;2022-12-16T02:30:51;30.38;;;12.60;;
72388;SDS011;60566;48.062;9.930;2022-12-16T02:33:29;26.77;;;13.98;;
72388;SDS011;60566;48.062;9.930;2022-12-16T02:36:14;27.85;;;12.02;;
72388;SDS011;60566;48.062;9.930;2022-12-16T02:38:47;27.20;;;11.10;;
72388;SDS011;60566;48.062;9.930;2022-12-16T02:41:16;29.60;;;12.02;;
72388;SDS011;60566;48.062;9.930;2022-12-16T02:43:49;30.83;;;13.05;;
72388;SDS011;60566;48.062;9.930;2022-12-16T02:46:18;32.65;;;11.30;;
72388;SDS011;60566;48.062;9.930;2022-12-16T02:48:45;28.60;;;13.00;;
72388;SDS011;60566;48.062;9.930;2022-12-16T02:51:11;31.48;;;12.57;;
72388;SDS011;60566;48.062;9.930;2022-12-16T02:53:37;39.03;;;14.35;;
72388;SDS011;60566;48.062;9.930;2022-12-16T02:56:04;28.73;;;12.40;;
72388;SDS011;60566;48.062;9.930;2022-12-16T02:58:36;34.88;;;13.95;;
72388;SDS011;60566;48.062;9.930;2022-12-16T03:01:05;29.77;;;12.80;;
72388;SDS011;60566;48.062;9.930;2022-12-16T03:03:39;34.58;;;13.55;;
72388;SDS011;60566;48.062;9.930;2022-12-16T03:06:07;32.38;;;12.95;;
72388;SDS011;60566;48.062;9.930;2022-12-16T03:08:34;38.00;;;13.73;;
72388;SDS011;60566;48.062;9.930;2022-12-16T03:11:05;33.38;;;14.90;;
72388;SDS011;60566;48.062;9.930;2022-12-16T03:13:34;34.63;;;14.95;;
72388;SDS011;60566;48.062;9.930;2022-12-16T03:16:01;36.20;;;15.00;;
72388;SDS011;60566;48.062;9.930;2022-12-16T03:18:28;32.05;;;13.90;;
72388;SDS011;60566;48.062;9.930;2022-12-16T03:20:56;35.92;;;13.82;;
72388;SDS011;60566;48.062;9.930;2022-12-16T03:23:24;37.08;;;15.25;;
72388;SDS011;60566;48.062;9.930;2022-12-16T03:25:53;37.28;;;13.90;;
72388;SDS011;60566;48.062;9.930;2022-12-16T03:28:25;36.42;;;14.32;;
72388;SDS011;60566;48.062;9.930;2022-12-16T03:30:54;30.05;;;13.13;;
72388;SDS011;60566;48.062;9.930;2022-12-16T03:33:24;33.92;;;14.35;;
72388;SDS011;60566;48.062;9.930;2022-12-16T03:35:53;35.80;;;15.30;;
72388;SDS011;60566;48.062;9.930;2022-12-16T03:38:21;34.60;;;14.40;;
72388;SDS011;60566;48.062;9.930;2022-12-16T03:40:48;42.22;;;15.75;;
72388;SDS011;60566;48.062;9.930;2022-12-16T03:43:14;33.17;;;15.02;;
72388;SDS011;60566;48.062;9.930;2022-12-16T03:45:40;37.85;;;15.90;;
72388;SDS011;60566;48.062;9.930;2022-12-16T03:48:08;34.38;;;13.85;;
72388;SDS011;60566;48.062;9.930;2022-12-16T03:50:35;33.95;;;16.17;;
72388;SDS011;60566;48.062;9.930;2022-12-16T03:53:02;30.25;;;13.75;;
72388;SDS011;60566;48.062;9.930;2022-12-16T03:55:28;39.28;;;16.42;;
72388;SDS011;60566;48.062;9.930;2022-12-16T03:57:53;36.47;;;13.98;;
72388;SDS011;60566;48.062;9.930;2022-12-16T04:00:19;42.28;;;15.43;;
72388;SDS011;60566;48.062;9.930;2022-12-16T04:02:45;35.95;;;15.65;;
72388;SDS011;60566;48.062;9.930;2022-12-16T04:05:10;37.75;;;16.80;;
72388;SDS011;60566;48.062;9.930;2022-12-16T04:07:36;34.50;;;15.88;;
72388;SDS011;60566;48.062;9.930;2022-12-16T04:10:03;37.55;;;15.73;;
72388;SDS011;60566;48.062;9.930;2022-12-16T04:12:29;33.80;;;14.45;;
72388;SDS011;60566;48.062;9.930;2022-12-16T04:14:54;36.50;;;14.73;;
72388;SDS011;60566;48.062;9.930;2022-12-16T04:17:20;38.85;;;17.02;;
72388;SDS011;60566;48.062;9.930;2022-12-16T04:19:45;39.10;;;15.90;;
72388;SDS011;60566;48.062;9.930;2022-12-16T04:22:12;45.05;;;18.70;;
72388;SDS011;60566;48.062;9.930;2022-12-16T04:24:38;41.08;;;17.63;;
72388;SDS011;60566;48.062;9.930;2022-12-16T04:27:05;35.55;;;16.88;;
72388;SDS011;60566;48.062;9.930;2022-12-16T04:29:30;40.60;;;15.27;;
72388;SDS011;60566;48.062;9.930;2022-12-16T04:31:56;34.22;;;15.93;;
72388;SDS011;60566;48.062;9.930;2022-12-16T04:34:22;34.05;;;15.27;;
72388;SDS011;60566;48.062;9.930;2022-12-16T04:36:47;38.10;;;15.73;;
72388;SDS011;60566;48.062;9.930;2022-12-16T04:39:13;43.20;;;18.00;;
72388;SDS011;60566;48.062;9.930;2022-12-16T04:41:41;41.72;;;17.35;;
72388;SDS011;60566;48.062;9.930;2022-12-16T04:44:08;34.65;;;15.65;;
72388;SDS011;60566;48.062;9.930;2022-12-16T04:46:33;36.90;;;14.90;;
72388;SDS011;60566;48.062;9.930;2022-12-16T04:48:59;35.83;;;15.23;;
72388;SDS011;60566;48.062;9.930;2022-12-16T04:51:24;40.30;;;16.38;;
72388;SDS011;60566;48.062;9.930;2022-12-16T04:53:49;32.10;;;15.13;;
72388;SDS011;60566;48.062;9.930;2022-12-16T04:56:15;43.72;;;16.20;;
72388;SDS011;60566;48.062;9.930;2022-12-16T04:58:40;41.28;;;17.25;;
72388;SDS011;60566;48.062;9.930;2022-12-16T05:01:07;43.10;;;18.27;;
72388;SDS011;60566;48.062;9.930;2022-12-16T05:03:32;42.00;;;17.60;;
72388;SDS011;60566;48.062;9.930;2022-12-16T05:05:58;39.88;;;15.90;;
72388;SDS011;60566;48.062;9.930;2022-12-16T05:08:23;35.17;;;15.07;;
72388;SDS011;60566;48.062;9.930;2022-12-16T05:10:49;33.30;;;14.05;;
72388;SDS011;60566;48.062;9.930;2022-12-16T05:13:14;35.67;;;15.80;;
72388;SDS011;60566;48.062;9.930;2022-12-16T05:15:40;40.72;;;15.98;;
72388;SDS011;60566;48.062;9.930;2022-12-16T05:18:08;38.58;;;16.20;;
72388;SDS011;60566;48.062;9.930;2022-12-16T05:20:34;36.33;;;16.50;;
72388;SDS011;60566;48.062;9.930;2022-12-16T05:22:59;37.60;;;16.42;;
72388;SDS011;60566;48.062;9.930;2022-12-16T05:25:24;32.55;;;15.30;;
72388;SDS011;60566;48.062;9.930;2022-12-16T05:27:50;35.40;;;16.45;;
72388;SDS011;60566;48.062;9.930;2022-12-16T05:30:16;40.58;;;18.90;;
72388;SDS011;60566;48.062;9.930;2022-12-16T05:32:41;39.17;;;15.73;;
72388;SDS011;60566;48.062;9.930;2022-12-16T05:35:08;34.30;;;15.68;;
72388;SDS011;60566;48.062;9.930;2022-12-16T05:37:33;35.67;;;14.93;;
72388;SDS011;60566;48.062;9.930;2022-12-16T05:39:59;39.00;;;17.67;;
72388;SDS011;60566;48.062;9.930;2022-12-16T05:42:24;34.00;;;17.00;;
72388;SDS011;60566;48.062;9.930;2022-12-16T05:44:49;38.28;;;14.65;;
72388;SDS011;60566;48.062;9.930;2022-12-16T05:47:15;34.08;;;14.65;;
72388;SDS011;60566;48.062;9.930;2022-12-16T05:49:40;35.05;;;14.82;;
72388;SDS011;60566;48.062;9.930;2022-12-16T05:52:07;33.83;;;13.90;;
72388;SDS011;60566;48.062;9.930;2022-12-16T05:54:32;33.63;;;13.43;;
72388;SDS011;60566;48.062;9.930;2022-12-16T05:56:58;39.38;;;16.25;;
72388;SDS011;60566;48.062;9.930;2022-12-16T05:59:23;30.35;;;14.32;;
72388;SDS011;60566;48.062;9.930;2022-12-16T06:01:48;36.53;;;15.00;;
72388;SDS011;60566;48.062;9.930;2022-12-16T06:04:14;35.00;;;14.77;;
72388;SDS011;60566;48.062;9.930;2022-12-16T06:06:39;36.55;;;16.27;;
72388;SDS011;60566;48.062;9.930;2022-12-16T06:09:06;35.38;;;15.15;;
72388;SDS011;60566;48.062;9.930;2022-12-16T06:11:32;40.28;;;17.08;;
72388;SDS011;60566;48.062;9.930;2022-12-16T06:13:57;41.72;;;18.27;;
72388;SDS011;60566;48.062;9.930;2022-12-16T06:16:25;37.05;;;16.58;;
72388;SDS011;60566;48.062;9.930;2022-12-16T06:18:50;31.92;;;13.68;;
72388;SDS011;60566;48.062;9.930;2022-12-16T06:21:16;39.80;;;16.42;;
72388;SDS011;60566;48.062;9.930;2022-12-16T06:23:41;39.20;;;15.70;;
72388;SDS011;60566;48.062;9.930;2022-12-16T06:26:08;38.72;;;16.55;;
72388;SDS011;60566;48.062;9.930;2022-12-16T06:28:33;38.80;;;15.40;;
72388;SDS011;60566;48.062;9.930;2022-12-16T06:30:58;40.20;;;16.92;;
72388;SDS011;60566;48.062;9.930;2022-12-16T06:33:24;36.75;;;14.85;;
72388;SDS011;60566;48.062;9.930;2022-12-16T06:35:49;40.05;;;15.38;;
72388;SDS011;60566;48.062;9.930;2022-12-16T06:38:15;40.85;;;17.10;;
72388;SDS011;60566;48.062;9.930;2022-12-16T06:40:40;34.33;;;14.18;;
72388;SDS011;60566;48.062;9.930;2022-12-16T06:43:07;38.97;;;14.35;;
72388;SDS011;60566;48.062;9.930;2022-12-16T06:45:32;34.50;;;14.82;;
72388;SDS011;60566;48.062;9.930;2022-12-16T06:47:57;40.22;;;15.50;;
72388;SDS011;60566;48.062;9.930;2022-12-16T06:50:23;36.85;;;15.88;;
72388;SDS011;60566;48.062;9.930;2022-12-16T06:52:48;41.35;;;15.70;;
72388;SDS011;60566;48.062;9.930;2022-12-16T06:55:13;40.22;;;16.65;;
72388;SDS011;60566;48.062;9.930;2022-12-16T06:57:39;32.67;;;15.55;;
72388;SDS011;60566;48.062;9.930;2022-12-16T07:00:06;37.85;;;16.55;;
72388;SDS011;60566;48.062;9.930;2022-12-16T07:02:33;41.65;;;17.50;;
72388;SDS011;60566;48.062;9.930;2022-12-16T07:04:58;40.20;;;17.52;;
72388;SDS011;60566;48.062;9.930;2022-12-16T07:07:24;44.67;;;18.52;;
72388;SDS011;60566;48.062;9.930;2022-12-16T07:09:49;40.40;;;17.08;;
72388;SDS011;60566;48.062;9.930;2022-12-16T07:12:15;38.72;;;16.60;;
72388;SDS011;60566;48.062;9.930;2022-12-16T07:14:41;37.75;;;15.85;;
72388;SDS011;60566;48.062;9.930;2022-12-16T07:17:08;38.97;;;16.88;;
72388;SDS011;60566;48.062;9.930;2022-12-16T07:19:33;41.63;;;16.20;;
72388;SDS011;60566;48.062;9.930;2022-12-16T07:21:59;40.88;;;17.02;;
72388;SDS011;60566;48.062;9.930;2022-12-16T07:24:24;38.92;;;17.50;;
72388;SDS011;60566;48.062;9.930;2022-12-16T07:26:49;40.53;;;15.45;;
72388;SDS011;60566;48.062;9.930;2022-12-16T07:29:15;34.72;;;14.23;;
72388;SDS011;60566;48.062;9.930;2022-12-16T07:31:40;36.08;;;16.38;;
72388;SDS011;60566;48.062;9.930;2022-12-16T07:34:07;38.50;;;14.80;;
72388;SDS011;60566;48.062;9.930;2022-12-16T07:36:32;42.03;;;16.48;;
72388;SDS011;60566;48.062;9.930;2022-12-16T07:38:58;41.28;;;16.48;;
72388;SDS011;60566;48.062;9.930;2022-12-16T07:41:23;41.17;;;16.73;;
72388;SDS011;60566;48.062;9.930;2022-12-16T07:43:48;40.95;;;17.50;;
72388;SDS011;60566;48.062;9.930;2022-12-16T07:46:14;44.60;;;16.05;;
72388;SDS011;60566;48.062;9.930;2022-12-16T07:48:39;39.63;;;17.48;;
72388;SDS011;60566;48.062;9.930;2022-12-16T07:51:06;38.78;;;17.27;;
72388;SDS011;60566;48.062;9.930;2022-12-16T07:53:31;43.58;;;19.05;;
72388;SDS011;60566;48.062;9.930;2022-12-16T07:55:57;44.38;;;17.00;;
72388;SDS011;60566;48.062;9.930;2022-12-16T07:58:22;45.47;;;17.80;;
72388;SDS011;60566;48.062;9.930;2022-12-16T08:00:47;40.58;;;17.67;;
72388;SDS011;60566;48.062;9.930;2022-12-16T08:03:13;43.65;;;17.60;;
72388;SDS011;60566;48.062;9.930;2022-12-16T08:05:38;44.70;;;17.73;;
72388;SDS011;60566;48.062;9.930;2022-12-16T08:08:05;43.13;;;18.98;;
72388;SDS011;60566;48.062;9.930;2022-12-16T08:10:30;44.97;;;18.15;;
72388;SDS011;60566;48.062;9.930;2022-12-16T08:12:59;46.78;;;19.42;;
72388;SDS011;60566;48.062;9.930;2022-12-16T08:15:25;49.22;;;19.25;;
72388;SDS011;60566;48.062;9.930;2022-12-16T08:17:50;42.50;;;17.38;;
72388;SDS011;60566;48.062;9.930;2022-12-16T08:20:16;44.60;;;17.67;;
72388;SDS011;60566;48.062;9.930;2022-12-16T08:22:41;53.40;;;18.88;;
72388;SDS011;60566;48.062;9.930;2022-12-16T08:25:08;47.15;;;17.98;;
72388;SDS011;60566;48.062;9.930;2022-12-16T08:27:33;47.92;;;18.20;;
72388;SDS011;60566;48.062;9.930;2022-12-16T08:29:59;47.05;;;17.65;;
72388;SDS011;60566;48.062;9.930;2022-12-16T08:32:24;46.65;;;19.65;;
72388;SDS011;60566;48.062;9.930;2022-12-16T08:34:50;50.75;;;18.63;;
72388;SDS011;60566;48.062;9.930;2022-12-16T08:37:15;46.53;;;20.67;;
72388;SDS011;60566;48.062;9.930;2022-12-16T08:39:40;46.58;;;18.25;;
72388;SDS011;60566;48.062;9.930;2022-12-16T08:42:07;43.70;;;19.85;;
72388;SDS011;60566;48.062;9.930;2022-12-16T08:44:33;55.13;;;19.83;;
72388;SDS011;60566;48.062;9.930;2022-12-16T08:46:58;46.95;;;20.23;;
72388;SDS011;60566;48.062;9.930;2022-12-16T08:49:23;50.65;;;18.80;;
72388;SDS011;60566;48.062;9.930;2022-12-16T08:51:49;40.65;;;17.60;;
72388;SDS011;60566;48.062;9.930;2022-12-16T08:54:14;43.58;;;17.27;;
72388;SDS011;60566;48.062;9.930;2022-12-16T08:56:40;42.30;;;17.75;;
72388;SDS011;60566;48.062;9.930;2022-12-16T08:59:07;44.63;;;17.88;;
72388;SDS011;60566;48.062;9.930;2022-12-16T09:01:32;41.20;;;17.23;;
72388;SDS011;60566;48.062;9.930;2022-12-16T09:03:58;45.03;;;17.23;;
72388;SDS011;60566;48.062;9.930;2022-12-16T09:06:23;46.28;;;18.63;;
72388;SDS011;60566;48.062;9.930;2022-12-16T09:08:48;47.03;;;20.58;;
72388;SDS011;60566;48.062;9.930;2022-12-16T09:11:14;45.15;;;18.52;;
72388;SDS011;60566;48.062;9.930;2022-12-16T09:13:39;45.17;;;17.38;;
72388;SDS011;60566;48.062;9.930;2022-12-16T09:16:06;45.63;;;18.38;;
72388;SDS011;60566;48.062;9.930;2022-12-16T09:18:32;58.60;;;22.48;;
72388;SDS011;60566;48.062;9.930;2022-12-16T09:20:57;40.85;;;19.67;;
72388;SDS011;60566;48.062;9.930;2022-12-16T09:23:23;50.65;;;20.60;;
72388;SDS011;60566;48.062;9.930;2022-12-16T09:25:48;49.20;;;19.50;;
72388;SDS011;60566;48.062;9.930;2022-12-16T09:28:13;52.15;;;20.17;;
72388;SDS011;60566;48.062;9.930;2022-12-16T09:30:39;46.13;;;18.90;;
72388;SDS011;60566;48.062;9.930;2022-12-16T09:33:05;43.33;;;17.67;;
72388;SDS011;60566;48.062;9.930;2022-12-16T09:35:31;42.45;;;18.73;;
72388;SDS011;60566;48.062;9.930;2022-12-16T09:37:58;39.22;;;17.33;;
72388;SDS011;60566;48.062;9.930;2022-12-16T09:40:23;42.50;;;18.35;;
72388;SDS011;60566;48.062;9.930;2022-12-16T09:42:49;44.28;;;16.80;;
72388;SDS011;60566;48.062;9.930;2022-12-16T09:45:19;37.20;;;16.63;;
72388;SDS011;60566;48.062;9.930;2022-12-16T09:47:50;38.45;;;16.17;;
72388;SDS011;60566;48.062;9.930;2022-12-16T09:50:20;40.72;;;16.50;;
72388;SDS011;60566;48.062;9.930;2022-12-16T09:52:49;41.63;;;17.05;;
72388;SDS011;60566;48.062;9.930;2022-12-16T09:55:20;40.47;;;16.83;;
72388;SDS011;60566;48.062;9.930;2022-12-16T09:57:49;40.42;;;16.15;;
72388;SDS011;60566;48.062;9.930;2022-12-16T10:00:16;38.08;;;16.73;;
72388;SDS011;60566;48.062;9.930;2022-12-16T10:02:44;36.03;;;15.50;;
72388;SDS011;60566;48.062;9.930;2022-12-16T10:05:13;39.90;;;15.95;;
72388;SDS011;60566;48.062;9.930;2022-12-16T10:07:42;34.25;;;15.77;;
72388;SDS011;60566;48.062;9.930;2022-12-16T10:10:16;36.20;;;15.80;;
72388;SDS011;60566;48.062;9.930;2022-12-16T10:12:43;36.25;;;15.57;;
72388;SDS011;60566;48.062;9.930;2022-12-16T10:15:13;49.42;;;16.42;;
72388;SDS011;60566;48.062;9.930;2022-12-16T10:17:50;34.50;;;14.23;;
72388;SDS011;60566;48.062;9.930;2022-12-16T10:20:18;34.25;;;14.98;;
72388;SDS011;60566;48.062;9.930;2022-12-16T10:22:52;39.28;;;14.90;;
72388;SDS011;60566;48.062;9.930;2022-12-16T10:25:22;37.92;;;15.38;;
72388;SDS011;60566;48.062;9.930;2022-12-16T10:27:50;40.08;;;15.73;;
72388;SDS011;60566;48.062;9.930;2022-12-16T10:30:19;39.83;;;16.00;;
72388;SDS011;60566;48.062;9.930;2022-12-16T10:32:45;38.75;;;16.02;;
72388;SDS011;60566;48.062;9.930;2022-12-16T10:35:16;39.60;;;17.20;;
72388;SDS011;60566;48.062;9.930;2022-12-16T10:37:44;37.85;;;16.88;;
72388;SDS011;60566;48.062;9.930;2022-12-16T10:40:14;39.42;;;17.67;;
72388;SDS011;60566;48.062;9.930;2022-12-16T10:42:41;40.95;;;17.73;;
72388;SDS011;60566;48.062;9.930;2022-12-16T10:45:12;31.90;;;14.73;;
72388;SDS011;60566;48.062;9.930;2022-12-16T10:47:42;38.35;;;16.90;;
72388;SDS011;60566;48.062;9.930;2022-12-16T10:50:10;36.65;;;14.93;;
72388;SDS011;60566;48.062;9.930;2022-12-16T10:52:42;38.33;;;16.50;;
72388;SDS011;60566;48.062;9.930;2022-12-16T10:55:11;37.40;;;15.98;;
72388;SDS011;60566;48.062;9.930;2022-12-16T10:57:46;37.83;;;16.55;;
72388;SDS011;60566;48.062;9.930;2022-12-16T11:00:20;36.72;;;17.35;;
72388;SDS011;60566;48.062;9.930;2022-12-16T11:03:17;40.28;;;16.25;;
72388;SDS011;60566;48.062;9.930;2022-12-16T11:05:44;33.97;;;15.93;;
72388;SDS011;60566;48.062;9.930;2022-12-16T11:08:18;36.95;;;16.17;;
72388;SDS011;60566;48.062;9.930;2022-12-16T11:10:49;39.97;;;18.02;;
72388;SDS011;60566;48.062;9.930;2022-12-16T11:13:19;41.05;;;18.00;;
72388;SDS011;60566;48.062;9.930;2022-12-16T11:15:46;32.97;;;16.20;;
72388;SDS011;60566;48.062;9.930;2022-12-16T11:18:30;35.65;;;15.80;;
72388;SDS011;60566;48.062;9.930;2022-12-16T11:21:03;33.47;;;16.45;;
72388;SDS011;60566;48.062;9.930;2022-12-16T11:23:30;33.97;;;15.77;;
72388;SDS011;60566;48.062;9.930;2022-12-16T11:26:07;40.17;;;18.38;;
72388;SDS011;60566;48.062;9.930;2022-12-16T11:28:34;37.40;;;17.35;;
72388;SDS011;60566;48.062;9.930;2022-12-16T11:31:00;34.17;;;16.58;;
72388;SDS011;60566;48.062;9.930;2022-12-16T11:33:27;42.15;;;18.35;;
72388;SDS011;60566;48.062;9.930;2022-12-16T11:36:02;41.38;;;17.50;;
72388;SDS011;60566;48.062;9.930;2022-12-16T11:38:32;33.67;;;17.40;;
72388;SDS011;60566;48.062;9.930;2022-12-16T11:41:03;37.17;;;16.85;;
72388;SDS011;60566;48.062;9.930;2022-12-16T11:43:30;34.85;;;16.75;;
72388;SDS011;60566;48.062;9.930;2022-12-16T11:45:56;39.97;;;16.45;;
72388;SDS011;60566;48.062;9.930;2022-12-16T11:48:27;41.30;;;17.63;;
72388;SDS011;60566;48.062;9.930;2022-12-16T11:50:56;40.22;;;17.33;;
72388;SDS011;60566;48.062;9.930;2022-12-16T11:53:24;39.17;;;17.08;;
72388;SDS011;60566;48.062;9.930;2022-12-16T11:55:58;34.33;;;15.90;;
72388;SDS011;60566;48.062;9.930;2022-12-16T11:58:25;36.40;;;16.08;;
72388;SDS011;60566;48.062;9.930;2022-12-16T12:00:58;31.08;;;15.05;;
72388;SDS011;60566;48.062;9.930;2022-12-16T12:03:27;36.20;;;15.50;;
72388;SDS011;60566;48.062;9.930;2022-12-16T12:05:55;32.63;;;14.30;;
72388;SDS011;60566;48.062;9.930;2022-12-16T12:08:27;36.22;;;15.52;;
72388;SDS011;60566;48.062;9.930;2022-12-16T12:11:01;28.00;;;14.95;;
72388;SDS011;60566;48.062;9.930;2022-12-16T12:13:39;32.88;;;16.30;;
72388;SDS011;60566;48.062;9.930;2022-12-16T12:16:13;31.92;;;15.63;;
72388;SDS011;60566;48.062;9.930;2022-12-16T12:18:43;32.10;;;14.15;;
72388;SDS011;60566;48.062;9.930;2022-12-16T12:21:13;31.50;;;14.40;;
72388;SDS011;60566;48.062;9.930;2022-12-16T12:23:44;31.08;;;13.98;;
72388;SDS011;60566;48.062;9.930;2022-12-16T12:26:13;36.78;;;17.08;;
72388;SDS011;60566;48.062;9.930;2022-12-16T12:28:46;30.70;;;15.55;;
72388;SDS011;60566;48.062;9.930;2022-12-16T12:31:20;35.80;;;15.68;;
72388;SDS011;60566;48.062;9.930;2022-12-16T12:33:54;35.15;;;15.93;;
72388;SDS011;60566;48.062;9.930;2022-12-16T12:36:27;32.58;;;15.60;;
72388;SDS011;60566;48.062;9.930;2022-12-16T12:39:00;35.67;;;16.63;;
72388;SDS011;60566;48.062;9.930;2022-12-16T12:41:40;42.47;;;17.25;;
72388;SDS011;60566;48.062;9.930;2022-12-16T12:44:15;35.22;;;16.55;;
72388;SDS011;60566;48.062;9.930;2022-12-16T12:46:47;29.60;;;14.25;;
72388;SDS011;60566;48.062;9.930;2022-12-16T12:49:18;35.53;;;16.35;;
72388;SDS011;60566;48.062;9.930;2022-12-16T12:51:50;37.58;;;16.88;;
72388;SDS011;60566;48.062;9.930;2022-12-16T12:54:22;33.25;;;15.73;;
72388;SDS011;60566;48.062;9.930;2022-12-16T12:56:53;36.53;;;15.60;;
72388;SDS011;60566;48.062;9.930;2022-12-16T12:59:21;37.92;;;16.55;;
72388;SDS011;60566;48.062;9.930;2022-12-16T13:01:50;42.03;;;18.75;;
72388;SDS011;60566;48.062;9.930;2022-12-16T13:04:17;35.35;;;17.73;;
72388;SDS011;60566;48.062;9.930;2022-12-16T13:06:44;38.10;;;18.23;;
72388;SDS011;60566;48.062;9.930;2022-12-16T13:09:23;38.20;;;15.90;;
72388;SDS011;60566;48.062;9.930;2022-12-16T13:14:51;31.77;;;16.00;;
72388;SDS011;60566;48.062;9.930;2022-12-16T13:17:19;32.50;;;15.25;;
72388;SDS011;60566;48.062;9.930;2022-12-16T13:22:27;34.50;;;15.40;;
72388;SDS011;60566;48.062;9.930;2022-12-16T13:24:53;39.55;;;16.45;;
72388;SDS011;60566;48.062;9.930;2022-12-16T13:27:19;34.75;;;16.08;;
72388;SDS011;60566;48.062;9.930;2022-12-16T13:29:44;32.30;;;14.85;;
72388;SDS011;60566;48.062;9.930;2022-12-16T13:32:26;31.80;;;15.88;;
72388;SDS011;60566;48.062;9.930;2022-12-16T13:34:57;39.47;;;16.77;;
72388;SDS011;60566;48.062;9.930;2022-12-16T13:37:24;37.78;;;17.08;;
72388;SDS011;60566;48.062;9.930;2022-12-16T13:39:58;37.03;;;15.88;;
72388;SDS011;60566;48.062;9.930;2022-12-16T13:45:15;34.28;;;15.40;;
72388;SDS011;60566;48.062;9.930;2022-12-16T13:47:58;34.83;;;16.45;;
72388;SDS011;60566;48.062;9.930;2022-12-16T13:50:34;36.03;;;16.40;;
72388;SDS011;60566;48.062;9.930;2022-12-16T13:53:01;46.03;;;18.05;;
72388;SDS011;60566;48.062;9.930;2022-12-16T13:55:28;40.70;;;17.08;;
72388;SDS011;60566;48.062;9.930;2022-12-16T13:57:57;44.40;;;16.75;;
72388;SDS011;60566;48.062;9.930;2022-12-16T14:00:27;41.03;;;17.02;;
72388;SDS011;60566;48.062;9.930;2022-12-16T14:02:53;39.40;;;17.48;;
72388;SDS011;60566;48.062;9.930;2022-12-16T14:05:21;36.40;;;16.50;;
72388;SDS011;60566;48.062;9.930;2022-12-16T14:07:47;39.72;;;18.13;;
72388;SDS011;60566;48.062;9.930;2022-12-16T14:10:21;35.92;;;16.88;;
72388;SDS011;60566;48.062;9.930;2022-12-16T14:15:24;33.80;;;15.48;;
72388;SDS011;60566;48.062;9.930;2022-12-16T14:20:20;36.63;;;16.58;;
72388;SDS011;60566;48.062;9.930;2022-12-16T14:25:16;37.05;;;17.27;;
72388;SDS011;60566;48.062;9.930;2022-12-16T14:27:43;38.45;;;16.73;;
72388;SDS011;60566;48.062;9.930;2022-12-16T14:30:15;40.47;;;18.17;;
72388;SDS011;60566;48.062;9.930;2022-12-16T14:32:42;36.08;;;16.63;;
72388;SDS011;60566;48.062;9.930;2022-12-16T14:35:10;45.63;;;18.85;;
72388;SDS011;60566;48.062;9.930;2022-12-16T14:37:38;44.78;;;17.33;;
72388;SDS011;60566;48.062;9.930;2022-12-16T14:40:05;41.25;;;17.17;;
72388;SDS011;60566;48.062;9.930;2022-12-16T14:42:43;35.50;;;15.82;;